Kezdőlap
METAR-TAF:

METAR-TAF

Repülőterek :

Limon Municipal Airport

Limon, Colorado, Amerikai Egyesült Államok

földrajzi szélesség: 39-16-24N, földrajzi hosszúság: 103-40-00W, magasság: 1635 m

Jelenlegi meteorológiai megfigyelések

A jelentés 43 perccel ezelõtt készült, 02:55 UTC
Északi szél 5 kt
Hőmérséklet 22°C
Páratartalom 53%
Légköri nyomás 1018 hPa
Látótávolság: 16.1 km
Derült ég

METAR: KLIC 130255Z AUTO 35005KT 10SM CLR 22/12 A3005 RMK AO2 SLP084 60000 T02170117 51007

Idő: 21:38 (03:38 UTC)


TAF: hiányzik

Meteorológiai megfigyelések és előrejelzések több, mint 4000 repülőtéren (METAR és TAF jelentéseket).

A térképen piros és sárga pontok jelzik az elérhető meteorológiai állomásokat.

Mozgassa az egeret a pont fölött, hogy megjelenjen az állomás neve.

Azután kattintson az időjárási megfigyelések és előrejelzések megtekintéséhez.

A térkép megváltoztatása: kattintson a fekete keresztel jelölt zöld gombra ráközelítéshez, a vonallal jelölt zöld gombra távolításhoz, vagy a zöld nyilakra a szomszédos térképek eléréséhez.


METAR-TAF: